createdAt,value
2023-03-25T00:01:15.487Z,95987.03
2023-03-25T00:02:48.200Z,95997.69
2023-03-25T00:04:20.010Z,96001.78
2023-03-25T00:05:52.169Z,96003.25
2023-03-25T00:07:23.857Z,96007.63
2023-03-25T00:08:55.746Z,96002.31
2023-03-25T00:10:31.561Z,96000.00
2023-03-25T00:12:03.590Z,95990.63
2023-03-25T00:13:35.484Z,95972.19
2023-03-25T00:15:08.212Z,96003.66
2023-03-25T00:16:39.863Z,95987.94
2023-03-25T00:18:11.678Z,95984.28
2023-03-25T00:19:43.295Z,95967.88
2023-03-25T00:21:14.919Z,95966.47
2023-03-25T00:22:46.541Z,95951.88
2023-03-25T00:24:18.283Z,95958.50
2023-03-25T00:25:52.858Z,95957.19
2023-03-25T00:27:24.662Z,95954.53
2023-03-25T00:28:56.330Z,95960.28
2023-03-25T00:30:27.983Z,95955.22
2023-03-25T00:31:59.628Z,95963.72
2023-03-25T00:33:31.850Z,95961.72
2023-03-25T00:35:03.654Z,95952.78
2023-03-25T00:36:37.661Z,95946.56
2023-03-25T00:38:09.775Z,95948.34
2023-03-25T00:39:41.512Z,95954.25
2023-03-25T00:41:17.628Z,95953.81
2023-03-25T00:42:50.331Z,95955.69
2023-03-25T00:44:22.424Z,95960.91
2023-03-25T00:45:55.460Z,95959.78
2023-03-25T00:47:27.133Z,95962.91
2023-03-25T00:48:58.928Z,95955.94
2023-03-25T00:50:30.536Z,95962.25
2023-03-25T00:52:02.143Z,95963.38
2023-03-25T00:53:34.250Z,95959.59
2023-03-25T00:55:07.325Z,95960.16
2023-03-25T00:56:40.335Z,95973.75
2023-03-25T00:58:12.002Z,95970.00
2023-03-25T00:59:43.658Z,95988.56
2023-03-25T01:01:16.518Z,95990.56
2023-03-25T01:02:50.315Z,96003.38
2023-03-25T01:04:22.109Z,96004.50
2023-03-25T01:05:56.068Z,95994.22
2023-03-25T01:07:29.319Z,95993.34
2023-03-25T01:09:01.544Z,95994.88
2023-03-25T01:10:34.990Z,95987.47
2023-03-25T01:12:08.113Z,95971.09
2023-03-25T01:13:39.713Z,95985.13
2023-03-25T01:15:11.992Z,95980.72
2023-03-25T01:16:43.686Z,95967.09
2023-03-25T01:18:15.750Z,95960.47
2023-03-25T01:19:47.349Z,95951.06
2023-03-25T01:21:19.050Z,95950.28
2023-03-25T01:22:50.892Z,95956.50
2023-03-25T01:24:22.521Z,95976.13
2023-03-25T01:25:54.228Z,95966.75
2023-03-25T01:27:27.157Z,95957.81
2023-03-25T01:28:58.853Z,95956.03
2023-03-25T01:30:30.714Z,95956.91
2023-03-25T01:32:02.347Z,95944.31
2023-03-25T01:33:34.095Z,95941.91
2023-03-25T01:35:07.091Z,95948.75
2023-03-25T01:36:39.831Z,95943.44
2023-03-25T01:38:11.477Z,95951.09
2023-03-25T01:39:43.098Z,95943.69
2023-03-25T01:41:14.729Z,95942.13
2023-03-25T01:42:47.738Z,95949.22
2023-03-25T01:44:57.206Z,95939.72
2023-03-25T01:46:28.920Z,95940.03
2023-03-25T01:48:04.588Z,95931.66
2023-03-25T01:49:40.775Z,95940.28
2023-03-25T01:51:13.410Z,95942.94
2023-03-25T01:52:46.332Z,95943.72
2023-03-25T01:54:18.138Z,95932.22
2023-03-25T01:55:53.016Z,95928.13
2023-03-25T01:57:25.990Z,95939.41
2023-03-25T01:58:59.551Z,95930.09
2023-03-25T02:00:31.327Z,95936.84
2023-03-25T02:02:03.924Z,95926.56
2023-03-25T02:03:37.403Z,95937.97
2023-03-25T02:05:11.028Z,95937.53
2023-03-25T02:06:43.679Z,95944.81
2023-03-25T02:08:15.901Z,95936.53
2023-03-25T02:09:47.549Z,95937.19
2023-03-25T02:11:19.169Z,95942.06
2023-03-25T02:12:50.880Z,95943.94
2023-03-25T02:14:24.978Z,95937.63
2023-03-25T02:16:10.633Z,95936.41
2023-03-25T02:17:59.192Z,95938.41
2023-03-25T02:19:55.531Z,95939.63
2023-03-25T02:21:50.199Z,95932.00
2023-03-25T02:23:34.666Z,95931.13
2023-03-25T02:25:35.219Z,95929.13
2023-03-25T02:27:15.243Z,95933.53
2023-03-25T02:28:48.606Z,95935.94
2023-03-25T02:30:48.699Z,95929.56
2023-03-25T02:32:26.678Z,95932.22
2023-03-25T02:34:37.838Z,95928.84
2023-03-25T02:36:30.303Z,95935.03
2023-03-25T02:38:14.193Z,95925.63
2023-03-25T02:39:47.183Z,95938.81
2023-03-25T02:41:21.319Z,95927.13
2023-03-25T02:42:53.832Z,95933.69
2023-03-25T02:44:29.037Z,95926.06
2023-03-25T02:46:02.280Z,95934.38
2023-03-25T02:47:35.532Z,95941.03
2023-03-25T02:49:08.755Z,95939.25
2023-03-25T02:50:41.514Z,95951.97
2023-03-25T02:52:14.888Z,95938.38
2023-03-25T02:53:48.346Z,95951.19
2023-03-25T02:55:20.690Z,95947.78
2023-03-25T02:56:57.391Z,95949.91
2023-03-25T02:58:29.926Z,95944.16
2023-03-25T03:00:01.558Z,95937.19
2023-03-25T03:01:35.021Z,95931.53
2023-03-25T03:03:07.770Z,95939.94
2023-03-25T03:04:48.805Z,95932.09
2023-03-25T03:06:20.510Z,95942.84
2023-03-25T03:07:55.059Z,95946.81
2023-03-25T03:09:35.958Z,95952.00
2023-03-25T03:11:11.045Z,95946.38
2023-03-25T03:12:49.246Z,95950.31
2023-03-25T03:14:29.930Z,95951.66
2023-03-25T03:16:05.364Z,95949.91
2023-03-25T03:17:38.925Z,95947.09
2023-03-25T03:19:21.185Z,95951.44
2023-03-25T03:20:55.692Z,95953.19
2023-03-25T03:22:37.325Z,95948.84
2023-03-25T03:24:11.765Z,95950.28
2023-03-25T03:25:49.312Z,95952.72
2023-03-25T03:27:26.175Z,95945.75
2023-03-25T03:29:00.979Z,95938.81
2023-03-25T03:30:34.131Z,95950.97
2023-03-25T03:32:07.533Z,95947.19
2023-03-25T03:33:42.253Z,95948.66
2023-03-25T03:35:15.524Z,95952.41
2023-03-25T03:36:48.160Z,95953.84
2023-03-25T03:38:21.369Z,95959.16
2023-03-25T03:39:53.086Z,95965.25
2023-03-25T03:41:27.153Z,95972.91
2023-03-25T03:42:59.868Z,95975.31
2023-03-25T03:44:32.917Z,96007.63
2023-03-25T03:46:05.984Z,96030.63
2023-03-25T03:47:39.360Z,96074.00
2023-03-25T03:49:13.280Z,96046.56
2023-03-25T03:50:48.756Z,96017.44
2023-03-25T03:52:21.585Z,96011.22
2023-03-25T03:53:54.202Z,96030.41
2023-03-25T03:55:29.128Z,96035.59
2023-03-25T03:57:03.586Z,96046.19
2023-03-25T03:58:36.630Z,96053.47
2023-03-25T04:00:10.088Z,96064.13
2023-03-25T04:01:48.627Z,96070.59
2023-03-25T04:03:24.372Z,96074.78
2023-03-25T04:05:00.635Z,96076.41
2023-03-25T04:06:35.469Z,96076.41
2023-03-25T04:08:12.173Z,96071.63
2023-03-25T04:09:54.764Z,96071.44
2023-03-25T04:11:28.096Z,96066.28
2023-03-25T04:13:02.332Z,96057.59
2023-03-25T04:14:34.005Z,96058.94
2023-03-25T04:16:06.680Z,96063.94
2023-03-25T04:17:39.353Z,96077.66
2023-03-25T04:19:13.625Z,96062.78
2023-03-25T04:20:49.667Z,96057.28
2023-03-25T04:22:21.851Z,96059.47
2023-03-25T04:23:55.763Z,96069.88
2023-03-25T04:25:27.671Z,96065.56
2023-03-25T04:27:03.357Z,96064.66
2023-03-25T04:28:36.810Z,96068.13
2023-03-25T04:30:08.932Z,96068.97
2023-03-25T04:31:46.577Z,96054.63
2023-03-25T04:33:20.880Z,96057.59
2023-03-25T04:34:57.596Z,96070.72
2023-03-25T04:36:29.238Z,96066.50
2023-03-25T04:38:01.718Z,96067.09
2023-03-25T04:39:33.411Z,96064.19
2023-03-25T04:41:06.907Z,96044.47
2023-03-25T04:42:38.866Z,96046.31
2023-03-25T04:44:12.565Z,96072.38
2023-03-25T04:45:49.740Z,96068.91
2023-03-25T04:47:23.298Z,96078.00
2023-03-25T04:48:56.921Z,96070.06
2023-03-25T04:50:29.384Z,96064.38
2023-03-25T04:52:04.196Z,96066.25
2023-03-25T04:53:35.965Z,96059.28
2023-03-25T04:55:08.595Z,96056.75
2023-03-25T04:56:40.446Z,96064.38
2023-03-25T04:58:12.233Z,96064.63
2023-03-25T04:59:45.219Z,96060.38
2023-03-25T05:01:20.954Z,96060.50
2023-03-25T05:02:54.069Z,96055.78
2023-03-25T05:04:25.810Z,96062.19
2023-03-25T05:05:57.418Z,96063.94
2023-03-25T05:07:29.942Z,96062.06
2023-03-25T05:09:04.036Z,96068.00
2023-03-25T05:10:36.426Z,96065.53
2023-03-25T05:12:11.258Z,96071.47
2023-03-25T05:13:42.979Z,96082.56
2023-03-25T05:15:17.217Z,96079.28
2023-03-25T05:16:48.884Z,96086.47
2023-03-25T05:18:20.573Z,96082.09
2023-03-25T05:19:52.963Z,96074.44
2023-03-25T05:21:24.972Z,96075.28
2023-03-25T05:22:57.563Z,96069.50
2023-03-25T05:24:29.307Z,96074.78
2023-03-25T05:26:00.966Z,96078.81
2023-03-25T05:27:32.705Z,96085.66
2023-03-25T05:29:05.256Z,96089.22
2023-03-25T05:30:41.851Z,96087.38
2023-03-25T05:32:17.624Z,96091.50
2023-03-25T05:33:57.204Z,96090.91
2023-03-25T05:35:55.424Z,96095.69
2023-03-25T05:37:27.319Z,96098.66
2023-03-25T05:39:00.993Z,96103.38
2023-03-25T05:40:33.479Z,96093.69
2023-03-25T05:42:05.336Z,96106.47
2023-03-25T05:43:37.480Z,96099.63
2023-03-25T05:45:10.444Z,96105.31
2023-03-25T05:46:46.581Z,96103.91
2023-03-25T05:48:18.372Z,96101.13
2023-03-25T05:49:50.578Z,96102.53
2023-03-25T05:51:22.484Z,96103.31
2023-03-25T05:53:00.177Z,96112.03
2023-03-25T05:54:32.006Z,96104.88
2023-03-25T05:56:07.328Z,96100.41
2023-03-25T05:57:39.220Z,96097.84
2023-03-25T05:59:11.018Z,96112.41
2023-03-25T06:00:43.623Z,96113.13
2023-03-25T06:02:17.360Z,96104.09
2023-03-25T06:03:49.260Z,96104.09
2023-03-25T06:05:23.847Z,96108.03
2023-03-25T06:06:55.813Z,96107.38
2023-03-25T06:08:30.020Z,96115.00
2023-03-25T06:10:01.899Z,96106.63
2023-03-25T06:11:38.460Z,96117.66
2023-03-25T06:13:10.703Z,96105.25
2023-03-25T06:14:47.944Z,96113.84
2023-03-25T06:16:20.819Z,96115.31
2023-03-25T06:17:53.895Z,96104.47
2023-03-25T06:19:28.284Z,96118.22
2023-03-25T06:21:00.107Z,96115.19
2023-03-25T06:22:34.065Z,96118.03
2023-03-25T06:24:07.097Z,96128.63
2023-03-25T06:25:38.984Z,96123.66
2023-03-25T06:27:13.016Z,96121.59
2023-03-25T06:28:44.760Z,96120.69
2023-03-25T06:30:17.730Z,96114.41
2023-03-25T06:31:49.424Z,96112.75
2023-03-25T06:33:42.508Z,96113.84
2023-03-25T06:35:18.291Z,96109.19
2023-03-25T06:36:50.134Z,96109.97
2023-03-25T06:38:21.958Z,96103.38
2023-03-25T06:39:56.639Z,96093.31
2023-03-25T06:41:36.099Z,96098.69
2023-03-25T06:43:08.130Z,96095.63
2023-03-25T06:44:42.913Z,96098.53
2023-03-25T06:46:14.545Z,96103.59
2023-03-25T06:47:48.587Z,96101.94
2023-03-25T06:49:44.202Z,96093.56
2023-03-25T06:51:18.525Z,96099.50
2023-03-25T06:52:54.954Z,96099.66
2023-03-25T06:54:38.208Z,96087.00
2023-03-25T06:56:10.340Z,96096.22
2023-03-25T06:57:44.047Z,96093.97
2023-03-25T06:59:17.596Z,96098.41
2023-03-25T07:00:57.032Z,96099.59
2023-03-25T07:02:28.750Z,96103.53
2023-03-25T07:04:03.645Z,96106.44
2023-03-25T07:05:40.005Z,96097.41
2023-03-25T07:07:11.842Z,96102.03
2023-03-25T07:08:43.492Z,96093.09
2023-03-25T07:10:15.396Z,96103.28
2023-03-25T07:11:47.071Z,96099.31
2023-03-25T07:13:21.616Z,96107.75
2023-03-25T07:16:48.924Z,96110.41
2023-03-25T07:18:21.159Z,96094.13
2023-03-25T07:19:54.660Z,96094.13
2023-03-25T07:21:31.452Z,96114.19
2023-03-25T07:23:31.046Z,96113.75
2023-03-25T07:25:20.897Z,96100.88
2023-03-25T07:26:52.840Z,96102.00
2023-03-25T07:28:25.003Z,96109.75
2023-03-25T07:29:56.677Z,96121.50
2023-03-25T07:31:42.619Z,96100.31
2023-03-25T07:33:16.279Z,96108.63
2023-03-25T07:34:51.738Z,96113.16
2023-03-25T07:36:27.239Z,96114.78
2023-03-25T07:38:00.632Z,96113.63
2023-03-25T07:42:53.475Z,96116.53
2023-03-25T07:44:28.216Z,96107.63
2023-03-25T07:46:03.838Z,96103.78
2023-03-25T07:47:37.722Z,96112.78
2023-03-25T07:49:16.366Z,96110.34
2023-03-25T07:50:55.298Z,96106.38
2023-03-25T07:52:28.138Z,96103.41
2023-03-25T07:54:13.133Z,96114.53
2023-03-25T07:55:48.657Z,96115.31
2023-03-25T07:57:44.291Z,96110.13
2023-03-25T07:59:18.705Z,96114.13
2023-03-25T08:00:56.343Z,96109.56
2023-03-25T08:02:29.613Z,96114.91
2023-03-25T08:05:59.835Z,96111.38
2023-03-25T08:07:40.748Z,96107.31
2023-03-25T08:09:16.732Z,96102.41
2023-03-25T08:10:54.652Z,96111.63
2023-03-25T08:12:28.943Z,96104.88
2023-03-25T08:14:11.598Z,96105.00
2023-03-25T08:15:50.131Z,96116.63
2023-03-25T08:17:33.717Z,96105.69
2023-03-25T08:19:11.182Z,96104.22
2023-03-25T08:20:43.192Z,96106.69
2023-03-25T08:22:29.680Z,96095.00
2023-03-25T08:24:07.350Z,96105.03
2023-03-25T08:25:49.923Z,96102.91
2023-03-25T08:27:22.230Z,96105.56
2023-03-25T08:28:54.991Z,96101.03
2023-03-25T08:30:32.780Z,96101.59
2023-03-25T08:32:04.573Z,96099.97
2023-03-25T08:33:39.603Z,96106.72
2023-03-25T08:35:11.371Z,96101.06
2023-03-25T08:36:43.200Z,96100.09
2023-03-25T08:38:14.813Z,96099.19
2023-03-25T08:39:50.122Z,96104.38
2023-03-25T08:41:23.437Z,96100.16
2023-03-25T08:42:55.537Z,96107.16
2023-03-25T08:44:27.650Z,96106.03
2023-03-25T08:45:59.440Z,96108.34
2023-03-25T08:47:31.403Z,96114.66
2023-03-25T08:49:07.055Z,96101.94
2023-03-25T08:50:38.877Z,96110.25
2023-03-25T08:52:13.185Z,96108.72
2023-03-25T08:53:45.067Z,96111.81
2023-03-25T08:55:23.488Z,96118.22
2023-03-25T08:56:56.736Z,96109.81
2023-03-25T08:58:31.280Z,96114.22
2023-03-25T09:00:13.050Z,96111.56
2023-03-25T09:01:44.878Z,96115.78
2023-03-25T09:03:42.689Z,96125.28
2023-03-25T09:05:16.099Z,96123.31
2023-03-25T09:07:10.863Z,96114.88
2023-03-25T09:08:41.347Z,96124.38
2023-03-25T09:10:13.323Z,96108.78
2023-03-25T09:11:44.985Z,96115.84
2023-03-25T09:13:18.195Z,96109.00
2023-03-25T09:14:49.833Z,96111.31
2023-03-25T09:16:21.539Z,96098.72
2023-03-25T09:17:53.209Z,96110.44
2023-03-25T09:19:26.225Z,96104.25
2023-03-25T09:20:58.873Z,96119.72
2023-03-25T09:22:30.604Z,96117.06
2023-03-25T09:24:02.636Z,96113.97
2023-03-25T09:25:34.449Z,96109.53
2023-03-25T09:27:06.290Z,96112.09
2023-03-25T09:28:39.344Z,96116.97
2023-03-25T09:30:14.090Z,96112.88
2023-03-25T09:31:45.698Z,96106.78
2023-03-25T09:33:17.369Z,96095.75
2023-03-25T09:35:07.215Z,96104.50
2023-03-25T09:36:39.018Z,96107.25
2023-03-25T09:38:10.710Z,96102.63
2023-03-25T09:39:42.818Z,96102.84
2023-03-25T09:41:23.809Z,96110.38
2023-03-25T09:43:03.408Z,96111.56
2023-03-25T09:44:39.017Z,96103.63
2023-03-25T09:46:10.733Z,96109.38
2023-03-25T09:47:44.426Z,96104.16
2023-03-25T09:49:18.364Z,96092.56
2023-03-25T09:50:50.327Z,96099.28
2023-03-25T09:52:24.591Z,96095.44
2023-03-25T09:53:58.538Z,96092.53
2023-03-25T09:55:32.497Z,96094.31
2023-03-25T09:57:06.547Z,96086.47
2023-03-25T09:58:41.588Z,96083.50
2023-03-25T10:00:17.447Z,96083.81
2023-03-25T10:01:53.172Z,96089.22
2023-03-25T10:03:27.029Z,96083.91
2023-03-25T10:05:11.834Z,96079.72
2023-03-25T10:06:48.393Z,96080.06
2023-03-25T10:08:24.774Z,96091.22
2023-03-25T10:09:59.482Z,96082.25
2023-03-25T10:11:37.817Z,96085.78
2023-03-25T10:13:13.420Z,96077.06
2023-03-25T10:14:53.239Z,96089.69
2023-03-25T10:16:31.004Z,96078.81
2023-03-25T10:18:10.127Z,96078.59
2023-03-25T10:19:50.970Z,96085.88
2023-03-25T10:21:24.855Z,96075.72
2023-03-25T10:23:01.752Z,96071.75
2023-03-25T10:24:35.914Z,96071.97
2023-03-25T10:26:10.665Z,96073.97
2023-03-25T10:27:43.305Z,96079.25
2023-03-25T10:29:17.417Z,96074.63
2023-03-25T10:30:50.125Z,96080.38
2023-03-25T10:32:28.759Z,96077.38
2023-03-25T10:34:01.610Z,96071.28
2023-03-25T10:35:35.447Z,96079.69
2023-03-25T10:37:12.457Z,96075.72
2023-03-25T10:38:45.283Z,96071.84
2023-03-25T10:40:21.990Z,96070.00
2023-03-25T10:41:57.828Z,96075.28
2023-03-25T10:43:31.170Z,96081.28
2023-03-25T10:45:03.426Z,96085.03
2023-03-25T10:46:37.353Z,96083.03
2023-03-25T10:48:12.685Z,96086.78
2023-03-25T10:49:44.715Z,96073.84
2023-03-25T10:51:17.575Z,96082.34
2023-03-25T10:52:49.468Z,96078.59
2023-03-25T10:54:21.638Z,96089.66
2023-03-25T10:55:56.270Z,96102.47
2023-03-25T10:57:28.856Z,96105.06
2023-03-25T10:59:02.267Z,96102.31
2023-03-25T11:00:34.333Z,96104.41
2023-03-25T11:02:12.424Z,96101.47
2023-03-25T11:03:47.706Z,96105.03
2023-03-25T11:05:20.313Z,96109.75
2023-03-25T11:06:54.076Z,96117.28
2023-03-25T11:08:31.631Z,96117.72
2023-03-25T11:10:17.882Z,96117.38
2023-03-25T11:11:49.703Z,96121.31
2023-03-25T11:13:24.008Z,96110.13
2023-03-25T11:14:56.839Z,96111.91
2023-03-25T11:16:32.618Z,96110.78
2023-03-25T11:18:06.181Z,96094.97
2023-03-25T11:19:40.615Z,96097.59
2023-03-25T11:21:12.770Z,96114.28
2023-03-25T11:22:46.536Z,96118.28
2023-03-25T11:24:18.403Z,96110.25
2023-03-25T11:25:50.278Z,96115.09
2023-03-25T11:27:22.818Z,96111.25
2023-03-25T11:28:56.017Z,96108.44
2023-03-25T11:30:27.758Z,96111.69
2023-03-25T11:32:07.928Z,96115.84
2023-03-25T11:33:39.963Z,96104.16
2023-03-25T11:35:17.400Z,96111.66
2023-03-25T11:36:53.197Z,96125.78
2023-03-25T11:38:24.823Z,96122.50
2023-03-25T11:39:56.485Z,96110.53
2023-03-25T11:41:29.611Z,96111.75
2023-03-25T11:43:01.294Z,96117.13
2023-03-25T11:44:32.975Z,96113.44
2023-03-25T11:46:08.570Z,96112.84
2023-03-25T11:47:41.439Z,96125.50
2023-03-25T11:49:16.047Z,96116.66
2023-03-25T11:50:55.045Z,96123.75
2023-03-25T11:52:27.387Z,96133.47
2023-03-25T11:53:59.530Z,96129.50
2023-03-25T11:55:33.539Z,96127.06
2023-03-25T11:57:06.859Z,96125.50
2023-03-25T11:58:39.129Z,96116.69
2023-03-25T12:00:23.009Z,96119.22
2023-03-25T12:02:01.893Z,96109.38
2023-03-25T12:03:40.274Z,96102.72
2023-03-25T12:05:15.754Z,96114.44
2023-03-25T12:06:57.897Z,96111.75
2023-03-25T12:08:42.671Z,96108.53
2023-03-25T12:10:18.789Z,96103.97
2023-03-25T12:11:55.262Z,96100.31
2023-03-25T12:13:39.296Z,96103.88
2023-03-25T12:15:18.110Z,96100.34
2023-03-25T12:16:51.887Z,96109.50
2023-03-25T12:18:35.103Z,96107.88
2023-03-25T12:20:12.338Z,96107.03
2023-03-25T12:21:52.229Z,96108.03
2023-03-25T12:23:29.862Z,96113.00
2023-03-25T12:25:21.434Z,96099.59
2023-03-25T12:26:58.055Z,96087.75
2023-03-25T12:28:40.574Z,96078.88
2023-03-25T12:30:19.880Z,96078.72
2023-03-25T12:31:58.492Z,96080.78
2023-03-25T12:33:40.427Z,96078.88
2023-03-25T12:35:20.098Z,96069.69
2023-03-25T12:36:56.480Z,96065.66
2023-03-25T12:38:38.277Z,96072.94
2023-03-25T12:40:21.329Z,96063.22
2023-03-25T12:41:56.404Z,96065.75
2023-03-25T12:43:30.721Z,96067.25
2023-03-25T12:45:30.123Z,96069.56
2023-03-25T12:47:15.082Z,96061.88
2023-03-25T12:48:54.064Z,96059.72
2023-03-25T12:50:36.777Z,96064.69
2023-03-25T12:52:10.502Z,96053.91
2023-03-25T12:53:48.470Z,96059.22
2023-03-25T12:55:38.198Z,96053.06
2023-03-25T12:57:17.761Z,96057.94
2023-03-25T12:58:59.904Z,96064.75
2023-03-25T13:00:37.140Z,96044.22
2023-03-25T13:02:15.808Z,96054.22
2023-03-25T13:04:00.402Z,96064.75
2023-03-25T13:05:33.771Z,96059.09
2023-03-25T13:07:06.254Z,96061.50
2023-03-25T13:08:39.919Z,96051.47
2023-03-25T13:10:15.011Z,96045.47
2023-03-25T13:11:49.442Z,96051.25
2023-03-25T13:13:23.311Z,96051.72
2023-03-25T13:14:57.644Z,96050.09
2023-03-25T13:16:29.837Z,96046.31
2023-03-25T13:18:04.039Z,96046.88
2023-03-25T13:19:36.658Z,96036.97
2023-03-25T13:21:13.988Z,96031.06
2023-03-25T13:22:47.302Z,96031.94
2023-03-25T13:24:20.179Z,96026.03
2023-03-25T13:25:56.754Z,96035.13
2023-03-25T13:27:31.048Z,96027.00
2023-03-25T13:29:03.825Z,96023.00
2023-03-25T13:30:37.431Z,96038.00
2023-03-25T13:32:12.932Z,96016.72
2023-03-25T13:33:46.830Z,96026.44
2023-03-25T13:35:20.729Z,96013.16
2023-03-25T13:36:59.901Z,96022.31
2023-03-25T13:38:33.228Z,96017.28
2023-03-25T13:40:10.896Z,96012.13
2023-03-25T13:41:44.930Z,96018.94
2023-03-25T13:43:24.262Z,96020.91
2023-03-25T13:44:56.258Z,96012.00
2023-03-25T13:46:31.293Z,96011.22
2023-03-25T13:48:11.283Z,96007.72
2023-03-25T13:49:46.359Z,96018.41
2023-03-25T13:51:23.640Z,96020.13
2023-03-25T13:52:58.346Z,96013.03
2023-03-25T13:54:31.923Z,96016.38
2023-03-25T13:56:34.800Z,96018.63
2023-03-25T13:58:37.641Z,96025.16
2023-03-25T14:00:21.787Z,96029.38
2023-03-25T14:02:23.115Z,96019.19
2023-03-25T14:04:29.428Z,96020.69
2023-03-25T14:06:14.566Z,96026.44
2023-03-25T14:08:27.470Z,96019.47
2023-03-25T14:10:31.052Z,96025.66
2023-03-25T14:12:04.084Z,96019.63
2023-03-25T14:13:41.496Z,96020.69
2023-03-25T14:15:14.483Z,96024.91
2023-03-25T14:16:52.239Z,96021.75
2023-03-25T14:18:23.859Z,96015.44
2023-03-25T14:19:58.333Z,96008.63
2023-03-25T14:21:32.618Z,96010.53
2023-03-25T14:23:05.539Z,96010.31
2023-03-25T14:24:41.665Z,96017.47
2023-03-25T14:26:13.679Z,96012.50
2023-03-25T14:27:47.917Z,96014.72
2023-03-25T14:29:24.664Z,96008.72
2023-03-25T14:31:16.992Z,96016.81
2023-03-25T14:32:48.848Z,96011.41
2023-03-25T14:34:25.639Z,96010.84
2023-03-25T14:35:57.327Z,96004.31
2023-03-25T14:37:30.596Z,95991.91
2023-03-25T14:39:02.264Z,95998.63
2023-03-25T14:41:02.330Z,96002.91
2023-03-25T14:42:42.865Z,96002.78
2023-03-25T14:44:18.406Z,96006.63
2023-03-25T14:46:05.438Z,96007.06
2023-03-25T14:47:37.192Z,96009.00
2023-03-25T14:49:19.352Z,96015.13
2023-03-25T14:51:02.121Z,96008.41
2023-03-25T14:52:37.624Z,96005.75
2023-03-25T14:54:18.948Z,96010.94
2023-03-25T14:55:50.600Z,95995.50
2023-03-25T14:57:22.800Z,96003.41
2023-03-25T14:58:55.958Z,96009.09
2023-03-25T15:00:29.858Z,96001.03
2023-03-25T15:02:05.244Z,95997.47
2023-03-25T15:03:37.849Z,96005.75
2023-03-25T15:05:15.815Z,96007.28
2023-03-25T15:06:49.197Z,96010.38
2023-03-25T15:08:23.736Z,96019.41
2023-03-25T15:09:56.045Z,96033.88
2023-03-25T15:11:33.442Z,96024.31
2023-03-25T15:13:06.369Z,96032.19
2023-03-25T15:14:41.205Z,96024.75
2023-03-25T15:16:17.600Z,96011.66
2023-03-25T15:17:50.874Z,96038.25
2023-03-25T15:19:25.251Z,96032.56
2023-03-25T15:21:02.233Z,96050.31
2023-03-25T15:22:34.017Z,96038.81
2023-03-25T15:24:07.747Z,96033.81
2023-03-25T15:25:39.408Z,96045.34
2023-03-25T15:27:14.848Z,96069.50
2023-03-25T15:28:57.267Z,96083.53
2023-03-25T15:30:37.006Z,96090.47
2023-03-25T15:32:16.668Z,96054.34
2023-03-25T15:34:00.158Z,96063.00
2023-03-25T15:35:53.553Z,96063.69
2023-03-25T15:37:46.927Z,96057.94
2023-03-25T15:39:29.931Z,96057.19
2023-03-25T15:41:09.968Z,96049.69
2023-03-25T15:42:51.569Z,96048.75
2023-03-25T15:44:43.902Z,96037.16
2023-03-25T15:46:46.487Z,96030.13
2023-03-25T15:48:25.159Z,96036.34
2023-03-25T15:50:09.823Z,96039.34
2023-03-25T15:51:49.594Z,96027.69
2023-03-25T15:53:43.021Z,96039.19
2023-03-25T15:55:15.796Z,96031.22
2023-03-25T15:56:47.764Z,96027.47
2023-03-25T15:58:23.634Z,96033.72
2023-03-25T15:59:59.225Z,96040.34
2023-03-25T16:01:33.301Z,96033.66
2023-03-25T16:03:07.664Z,96036.31
2023-03-25T16:04:40.671Z,96029.09
2023-03-25T16:06:18.225Z,96034.41
2023-03-25T16:07:50.129Z,96030.47
2023-03-25T16:10:56.713Z,96027.38
2023-03-25T16:12:28.537Z,96033.13
2023-03-25T16:14:04.855Z,96030.03
2023-03-25T16:15:36.904Z,96028.84
2023-03-25T16:17:09.006Z,96037.16
2023-03-25T16:18:41.552Z,96048.50
2023-03-25T16:20:15.443Z,96050.28
2023-03-25T16:21:49.829Z,96056.31
2023-03-25T16:23:21.725Z,96072.94
2023-03-25T16:24:54.734Z,96082.44
2023-03-25T16:26:34.681Z,96076.81
2023-03-25T16:28:07.587Z,96088.56
2023-03-25T16:29:41.962Z,96074.16
2023-03-25T16:31:28.945Z,96094.25
2023-03-25T16:33:17.426Z,96089.78
2023-03-25T16:34:49.261Z,96081.81
2023-03-25T16:36:21.050Z,96083.19
2023-03-25T16:38:00.269Z,96084.19
2023-03-25T16:39:37.009Z,96072.78
2023-03-25T16:41:12.542Z,96067.38
2023-03-25T16:42:47.384Z,96075.22
2023-03-25T16:44:21.423Z,96079.38
2023-03-25T16:46:00.423Z,96078.50
2023-03-25T16:47:38.156Z,96089.13
2023-03-25T16:49:58.542Z,96086.16
2023-03-25T16:51:38.166Z,96086.03
2023-03-25T16:53:32.528Z,96077.69
2023-03-25T16:55:40.883Z,96068.25
2023-03-25T16:57:33.455Z,96062.69
2023-03-25T16:59:18.000Z,96068.59
2023-03-25T17:01:10.213Z,96071.31
2023-03-25T17:02:59.993Z,96067.53
2023-03-25T17:04:49.738Z,96074.06
2023-03-25T17:06:36.645Z,96083.84
2023-03-25T17:08:27.773Z,96083.84
2023-03-25T17:10:02.398Z,96083.31
2023-03-25T17:11:36.449Z,96094.84
2023-03-25T17:13:11.671Z,96099.50
2023-03-25T17:14:44.337Z,96101.06
2023-03-25T17:16:16.714Z,96099.03
2023-03-25T17:17:53.709Z,96112.22
2023-03-25T17:19:30.042Z,96100.38
2023-03-25T17:21:04.069Z,96094.75
2023-03-25T17:22:38.886Z,96087.66
2023-03-25T17:24:22.718Z,96085.91
2023-03-25T17:25:59.268Z,96084.13
2023-03-25T17:27:33.676Z,96085.91
2023-03-25T17:29:10.206Z,96086.00
2023-03-25T17:30:42.850Z,96092.53
2023-03-25T17:32:17.360Z,96095.41
2023-03-25T17:33:49.697Z,96095.63
2023-03-25T17:35:24.232Z,96092.84
2023-03-25T17:37:00.343Z,96106.91
2023-03-25T17:38:34.113Z,96091.75
2023-03-25T17:40:20.709Z,96102.03
2023-03-25T17:41:55.708Z,96097.41
2023-03-25T17:43:27.858Z,96094.97
2023-03-25T17:44:59.694Z,96102.94
2023-03-25T17:46:32.071Z,96089.22
2023-03-25T17:48:03.959Z,96095.97
2023-03-25T17:49:35.772Z,96085.44
2023-03-25T17:51:07.730Z,96083.34
2023-03-25T17:52:39.497Z,96079.91
2023-03-25T17:54:11.344Z,96083.34
2023-03-25T17:55:44.534Z,96072.16
2023-03-25T17:57:17.543Z,96074.59
2023-03-25T17:58:49.144Z,96071.28
2023-03-25T18:00:22.033Z,96069.72
2023-03-25T18:01:53.802Z,96065.06
2023-03-25T18:03:26.403Z,96063.31
2023-03-25T18:04:58.299Z,96071.50
2023-03-25T18:06:30.047Z,96063.53
2023-03-25T18:08:03.304Z,96067.19
2023-03-25T18:09:35.098Z,96074.84
2023-03-25T18:11:10.282Z,96075.03
2023-03-25T18:12:42.318Z,96074.59
2023-03-25T18:14:14.193Z,96080.00
2023-03-25T18:15:46.268Z,96076.03
2023-03-25T18:17:18.117Z,96086.34
2023-03-25T18:18:49.851Z,96094.84
2023-03-25T18:20:25.877Z,96090.53
2023-03-25T18:21:58.908Z,96093.66
2023-03-25T18:23:34.245Z,96075.94
2023-03-25T18:25:06.624Z,96085.78
2023-03-25T18:26:39.653Z,96098.75
2023-03-25T18:28:12.410Z,96090.66
2023-03-25T18:29:44.364Z,96094.22
2023-03-25T18:31:20.719Z,96097.22
2023-03-25T18:32:52.563Z,96098.22
2023-03-25T18:34:25.536Z,96100.88
2023-03-25T18:35:59.461Z,96097.19
2023-03-25T18:37:31.373Z,96100.53
2023-03-25T18:39:04.068Z,96102.41
2023-03-25T18:40:36.076Z,96104.72
2023-03-25T18:42:12.954Z,96110.72
2023-03-25T18:43:46.096Z,96101.41
2023-03-25T18:45:18.103Z,96106.94
2023-03-25T18:46:49.756Z,96108.38
2023-03-25T18:48:21.533Z,96106.94
2023-03-25T18:49:53.242Z,96099.88
2023-03-25T18:51:24.909Z,96102.28
2023-03-25T18:52:56.722Z,96101.84
2023-03-25T18:54:29.822Z,96097.78
2023-03-25T18:56:01.597Z,96101.63